Time;durP1;ratioP1;P1;durP2;ratioP2;P2;SDS_P1;SDS_P2;PMS_P1;PMS_P2;Temp;Humidity;BMP_temperature;BMP_pressure;BME280_temperature;BME280_humidity;BME280_pressure;Samples;Min_cycle;Max_cycle;Signal;HPM_P1;HPM_P2
2022/04/25 00:02:26;;;;;;;15.10;2.20;;;;;;;;;;5075644;28;20435;-83
2022/04/25 00:04:54;;;;;;;16.77;1.87;;;;;;;;;;5075540;28;20443;-83
2022/04/25 00:07:21;;;;;;;15.40;2.30;;;;;;;;;;5075331;28;20447;-83
2022/04/25 00:09:49;;;;;;;14.83;2.20;;;;;;;;;;5075375;28;20447;-82
2022/04/25 00:12:16;;;;;;;14.37;2.27;;;;;;;;;;5075256;28;20874;-84
2022/04/25 00:14:44;;;;;;;14.17;2.20;;;;;;;;;;5075919;28;20496;-83
2022/04/25 00:17:11;;;;;;;15.67;2.60;;;;;;;;;;5075314;28;20441;-82
2022/04/25 00:19:41;;;;;;;21.73;2.83;;;;;;;;;;5075256;28;20493;-82
2022/04/25 00:22:08;;;;;;;18.47;2.80;;;;;;;;;;5075271;28;20948;-82
2022/04/25 00:24:35;;;;;;;17.57;2.77;;;;;;;;;;5075091;28;20450;-81
2022/04/25 00:27:03;;;;;;;14.63;2.50;;;;;;;;;;5075189;28;20439;-86
2022/04/25 00:29:30;;;;;;;14.20;2.50;;;;;;;;;;5074782;28;20821;-77
2022/04/25 00:31:57;;;;;;;14.80;2.33;;;;;;;;;;5075126;28;20460;-80
2022/04/25 00:34:25;;;;;;;18.20;2.90;;;;;;;;;;5075232;28;20441;-79
2022/04/25 00:36:54;;;;;;;14.40;2.30;;;;;;;;;;5075185;28;20497;-79
2022/04/25 00:39:22;;;;;;;18.73;2.63;;;;;;;;;;5074556;28;20483;-78
2022/04/25 00:41:49;;;;;;;18.20;2.67;;;;;;;;;;5075198;28;20522;-79
2022/04/25 00:44:17;;;;;;;15.80;2.20;;;;;;;;;;5074824;28;20443;-79
2022/04/25 00:46:47;;;;;;;22.30;2.87;;;;;;;;;;5074950;28;20439;-78
2022/04/25 00:49:15;;;;;;;17.87;2.20;;;;;;;;;;5074577;28;20503;-77
2022/04/25 00:51:43;;;;;;;14.57;2.13;;;;;;;;;;5074794;28;20439;-77
2022/04/25 00:54:12;;;;;;;22.37;3.60;;;;;;;;;;5074959;28;20450;-78
2022/04/25 00:56:41;;;;;;;16.70;2.77;;;;;;;;;;5074124;28;20467;-78
2022/04/25 00:59:09;;;;;;;16.10;2.67;;;;;;;;;;5074295;28;20490;-77
2022/04/25 01:01:36;;;;;;;16.43;2.60;;;;;;;;;;5074516;28;20443;-77
2022/04/25 01:04:04;;;;;;;20.43;3.50;;;;;;;;;;5074534;28;20439;-77
2022/04/25 01:06:31;;;;;;;18.23;3.70;;;;;;;;;;5074253;28;20443;-80
2022/04/25 01:08:59;;;;;;;15.37;2.87;;;;;;;;;;5074128;28;20446;-81
2022/04/25 01:11:28;;;;;;;17.63;3.07;;;;;;;;;;5074046;28;20956;-77
2022/04/25 01:13:56;;;;;;;19.97;3.73;;;;;;;;;;5074301;28;20443;-83
2022/04/25 01:16:23;;;;;;;17.63;2.80;;;;;;;;;;5074191;28;20453;-83
2022/04/25 01:18:50;;;;;;;20.73;3.07;;;;;;;;;;5073830;28;20486;-80
2022/04/25 01:21:19;;;;;;;26.23;3.70;;;;;;;;;;5073778;28;20446;-80
2022/04/25 01:29:20;;;;;;;15.27;2.50;;;;;;;;;;5073889;28;20488;-85
2022/04/25 01:31:47;;;;;;;22.83;3.13;;;;;;;;;;5073858;28;20435;-83
2022/04/25 01:34:14;;;;;;;16.43;2.57;;;;;;;;;;5073923;28;20815;-81
2022/04/25 01:36:42;;;;;;;16.30;2.80;;;;;;;;;;5073577;28;20479;-80
2022/04/25 01:39:10;;;;;;;20.00;3.13;;;;;;;;;;5073781;28;20483;-79
2022/04/25 01:41:40;;;;;;;16.00;2.70;;;;;;;;;;5073854;28;20445;-80
2022/04/25 01:44:07;;;;;;;17.90;2.80;;;;;;;;;;5073568;28;20496;-78
2022/04/25 01:46:35;;;;;;;19.07;2.60;;;;;;;;;;5073731;28;20447;-79
2022/04/25 01:49:02;;;;;;;21.50;3.23;;;;;;;;;;5073686;28;20443;-78
2022/04/25 01:51:30;;;;;;;20.43;2.50;;;;;;;;;;5073538;28;20446;-78
2022/04/25 01:53:57;;;;;;;18.70;2.47;;;;;;;;;;5073345;28;20956;-78
2022/04/25 01:56:26;;;;;;;18.60;2.60;;;;;;;;;;5072932;28;20988;-78
2022/04/25 01:58:53;;;;;;;14.00;2.50;;;;;;;;;;5073276;28;20486;-81
2022/04/25 02:01:21;;;;;;;15.27;2.80;;;;;;;;;;5072965;28;20959;-79
2022/04/25 02:03:48;;;;;;;18.57;3.97;;;;;;;;;;5073455;28;20454;-78
2022/04/25 02:06:15;;;;;;;17.80;2.97;;;;;;;;;;5073334;28;20445;-79
2022/04/25 02:08:43;;;;;;;20.07;2.73;;;;;;;;;;5073053;28;20446;-79
2022/04/25 02:11:24;;;;;;;19.83;3.00;;;;;;;;;;5072793;28;20443;-77
2022/04/25 02:13:53;;;;;;;16.03;3.07;;;;;;;;;;5073062;28;21042;-78
2022/04/25 02:16:21;;;;;;;19.73;3.07;;;;;;;;;;5073166;28;20442;-86
2022/04/25 02:18:48;;;;;;;18.50;3.37;;;;;;;;;;5073004;28;20545;-80
2022/04/25 02:21:16;;;;;;;16.20;3.00;;;;;;;;;;5072024;28;20488;-80
2022/04/25 02:23:43;;;;;;;16.67;3.23;;;;;;;;;;5072829;28;20438;-80
2022/04/25 02:26:11;;;;;;;21.57;3.03;;;;;;;;;;5072767;28;20453;-79
2022/04/25 02:28:39;;;;;;;30.50;4.50;;;;;;;;;;5072797;28;20439;-79
2022/04/25 02:31:08;;;;;;;14.03;2.90;;;;;;;;;;5072827;28;20450;-80
2022/04/25 02:33:37;;;;;;;21.30;3.37;;;;;;;;;;5072746;28;20449;-81
2022/04/25 02:36:05;;;;;;;18.53;2.50;;;;;;;;;;5072575;28;20475;-80
2022/04/25 02:38:33;;;;;;;16.33;2.93;;;;;;;;;;5072771;28;20431;-80
2022/04/25 02:41:08;;;;;;;21.97;3.50;;;;;;;;;;5072633;28;20967;-81
2022/04/25 02:43:37;;;;;;;21.17;2.73;;;;;;;;;;5072079;28;20482;-81
2022/04/25 02:46:05;;;;;;;21.33;3.37;;;;;;;;;;5072531;28;20449;-82
2022/04/25 02:48:34;;;;;;;17.03;2.90;;;;;;;;;;5072479;28;20450;-84
2022/04/25 02:51:03;;;;;;;27.80;4.07;;;;;;;;;;5072557;28;20439;-80
2022/04/25 02:53:30;;;;;;;19.17;3.30;;;;;;;;;;5072196;28;20455;-78
2022/04/25 02:55:58;;;;;;;19.77;3.83;;;;;;;;;;5071842;28;20469;-78
2022/04/25 02:58:26;;;;;;;19.70;2.60;;;;;;;;;;5072359;28;20450;-82
2022/04/25 03:00:55;;;;;;;25.20;3.83;;;;;;;;;;5072141;28;20497;-82
2022/04/25 03:03:24;;;;;;;18.23;3.10;;;;;;;;;;5072509;28;20445;-80
2022/04/25 03:05:53;;;;;;;17.27;3.33;;;;;;;;;;5072413;28;20458;-80
2022/04/25 03:08:22;;;;;;;15.90;2.63;;;;;;;;;;5072239;28;20434;-80
2022/04/25 03:10:51;;;;;;;18.47;3.53;;;;;;;;;;5072221;28;20449;-80
2022/04/25 03:13:19;;;;;;;24.83;3.07;;;;;;;;;;5071791;28;20450;-77
2022/04/25 03:15:47;;;;;;;15.47;3.13;;;;;;;;;;5072453;28;20449;-77
2022/04/25 03:18:16;;;;;;;18.77;3.30;;;;;;;;;;5072127;28;20439;-80
2022/04/25 03:20:45;;;;;;;22.60;3.90;;;;;;;;;;5072030;28;20485;-80
2022/04/25 03:23:14;;;;;;;24.93;4.67;;;;;;;;;;5071923;28;20868;-82
2022/04/25 03:25:44;;;;;;;20.00;2.87;;;;;;;;;;5072160;28;20435;-77
2022/04/25 03:28:12;;;;;;;17.77;3.53;;;;;;;;;;5071921;28;20889;-79
2022/04/25 03:30:39;;;;;;;21.97;2.90;;;;;;;;;;5071969;28;20446;-79
2022/04/25 03:33:07;;;;;;;20.53;4.43;;;;;;;;;;5071692;28;20439;-79
2022/04/25 03:35:34;;;;;;;18.00;3.60;;;;;;;;;;5071554;28;20485;-81
2022/04/25 03:38:02;;;;;;;17.60;3.07;;;;;;;;;;5071937;28;20439;-79
2022/04/25 03:40:31;;;;;;;16.30;3.90;;;;;;;;;;5071646;28;20492;-80
2022/04/25 03:42:59;;;;;;;21.23;2.70;;;;;;;;;;5071635;28;20439;-78
2022/04/25 03:45:27;;;;;;;20.93;3.60;;;;;;;;;;5071542;28;20443;-79
2022/04/25 03:47:54;;;;;;;19.27;3.13;;;;;;;;;;5071883;28;20439;-79
2022/04/25 03:50:21;;;;;;;18.17;4.07;;;;;;;;;;5071670;28;20451;-82
2022/04/25 03:52:49;;;;;;;23.70;3.90;;;;;;;;;;5071681;28;20454;-81
2022/04/25 03:58:05;;;;;;;18.67;3.00;;;;;;;;;;5071657;28;20422;-78
2022/04/25 04:00:33;;;;;;;21.43;4.03;;;;;;;;;;5071559;28;20490;-79
2022/04/25 04:03:01;;;;;;;18.57;3.37;;;;;;;;;;5071697;28;20446;-81
2022/04/25 04:05:28;;;;;;;20.53;3.50;;;;;;;;;;5071082;28;20443;-81
2022/04/25 04:07:56;;;;;;;24.00;3.97;;;;;;;;;;5071748;28;20439;-80
2022/04/25 04:10:23;;;;;;;15.83;3.47;;;;;;;;;;5071336;28;20443;-80
2022/04/25 04:12:51;;;;;;;15.10;2.80;;;;;;;;;;5071272;28;20435;-81
2022/04/25 04:15:20;;;;;;;23.67;3.87;;;;;;;;;;5071074;28;20940;-79
2022/04/25 04:17:47;;;;;;;28.63;3.77;;;;;;;;;;5071151;28;20447;-79
2022/04/25 04:20:15;;;;;;;21.60;3.63;;;;;;;;;;5070937;28;20862;-79
2022/04/25 04:22:42;;;;;;;27.23;3.27;;;;;;;;;;5071446;28;20442;-79
2022/04/25 04:25:11;;;;;;;20.40;4.20;;;;;;;;;;5070970;28;20439;-75
2022/04/25 04:27:39;;;;;;;16.53;2.97;;;;;;;;;;5071327;28;20440;-82
2022/04/25 04:30:08;;;;;;;24.47;3.47;;;;;;;;;;5071218;28;20440;-82
2022/04/25 04:32:38;;;;;;;18.23;2.80;;;;;;;;;;5071224;28;20437;-78
2022/04/25 04:35:08;;;;;;;17.37;3.20;;;;;;;;;;5071267;28;20947;-85
2022/04/25 04:37:35;;;;;;;22.07;3.17;;;;;;;;;;5071695;28;20431;-84
2022/04/25 04:42:48;;;;;;;26.77;3.40;;;;;;;;;;5054418;28;20436;-82
2022/04/25 04:45:16;;;;;;;20.03;3.43;;;;;;;;;;5054651;28;20459;-76
2022/04/25 04:47:45;;;;;;;21.63;4.37;;;;;;;;;;5060355;28;20448;-82
2022/04/25 04:50:15;;;;;;;16.90;2.80;;;;;;;;;;5060935;28;20461;-78
2022/04/25 04:52:44;;;;;;;28.60;4.70;;;;;;;;;;5067009;28;20451;-80
2022/04/25 04:55:12;;;;;;;25.00;3.87;;;;;;;;;;5055653;28;20994;-76
2022/04/25 04:57:39;;;;;;;19.07;3.27;;;;;;;;;;5053723;28;21012;-80
2022/04/25 05:00:08;;;;;;;20.17;3.80;;;;;;;;;;5054591;28;20487;-77
2022/04/25 05:02:36;;;;;;;22.33;4.07;;;;;;;;;;5054593;28;20530;-77
2022/04/25 05:05:06;;;;;;;17.63;3.20;;;;;;;;;;5054372;28;20507;-76
2022/04/25 05:07:34;;;;;;;21.93;3.60;;;;;;;;;;5054140;28;20454;-75
2022/04/25 05:10:03;;;;;;;17.90;2.90;;;;;;;;;;5070314;28;20883;-81
2022/04/25 05:12:30;;;;;;;21.77;3.37;;;;;;;;;;5072890;28;20537;-75
2022/04/25 05:14:58;;;;;;;18.00;3.37;;;;;;;;;;5073305;28;20473;-80
2022/04/25 05:17:26;;;;;;;16.30;4.20;;;;;;;;;;5073417;28;20443;-77
2022/04/25 05:19:53;;;;;;;22.33;3.37;;;;;;;;;;5073414;28;20484;-77
2022/04/25 05:22:23;;;;;;;27.63;3.67;;;;;;;;;;5073430;28;20447;-75
2022/04/25 05:24:50;;;;;;;43.23;5.07;;;;;;;;;;5067860;28;20468;-81
2022/04/25 05:27:17;;;;;;;35.47;4.20;;;;;;;;;;5053322;28;20450;-78
2022/04/25 05:29:45;;;;;;;17.80;3.40;;;;;;;;;;5054282;28;20477;-74
2022/04/25 05:32:12;;;;;;;22.80;3.93;;;;;;;;;;5054117;28;20522;-74
2022/04/25 05:34:40;;;;;;;18.40;3.13;;;;;;;;;;5053864;28;20454;-77
2022/04/25 05:37:09;;;;;;;22.97;4.90;;;;;;;;;;5060415;28;20492;-84
2022/04/25 05:39:39;;;;;;;20.87;3.77;;;;;;;;;;5053760;28;20451;-76
2022/04/25 05:42:07;;;;;;;23.80;3.90;;;;;;;;;;5055612;28;20837;-76
2022/04/25 05:44:35;;;;;;;23.13;3.40;;;;;;;;;;5059815;28;20510;-73
2022/04/25 05:47:02;;;;;;;36.40;12.87;;;;;;;;;;5060253;28;20450;-80
2022/04/25 05:52:14;;;;;;;35.50;4.50;;;;;;;;;;5058727;28;20454;-75
2022/04/25 05:54:44;;;;;;;25.40;5.00;;;;;;;;;;5061059;28;20453;-80
2022/04/25 05:57:11;;;;;;;23.63;4.23;;;;;;;;;;5055197;28;20492;-79
2022/04/25 05:59:39;;;;;;;26.20;5.07;;;;;;;;;;5057555;28;20449;-79
2022/04/25 06:02:07;;;;;;;24.73;3.97;;;;;;;;;;5060628;28;20930;-79
2022/04/25 06:04:34;;;;;;;36.80;6.33;;;;;;;;;;5055197;28;20444;-81
2022/04/25 06:07:04;;;;;;;40.37;12.00;;;;;;;;;;5057075;28;20458;-76
2022/04/25 06:09:31;;;;;;;27.80;5.40;;;;;;;;;;5063573;28;20536;-78
2022/04/25 06:12:02;;;;;;;22.23;4.30;;;;;;;;;;5056767;28;20960;-82
2022/04/25 06:14:31;;;;;;;21.43;3.97;;;;;;;;;;5058098;28;20459;-85
2022/04/25 06:16:59;;;;;;;28.57;5.27;;;;;;;;;;5058580;28;20451;-79
2022/04/25 06:19:26;;;;;;;25.23;4.60;;;;;;;;;;5053229;28;20569;-83
2022/04/25 06:21:54;;;;;;;111.80;76.50;;;;;;;;;;5072368;28;20490;-82
2022/04/25 06:24:22;;;;;;;26.53;5.60;;;;;;;;;;5072288;28;20887;-79
2022/04/25 06:26:49;;;;;;;33.47;11.83;;;;;;;;;;5071531;28;20497;-80
2022/04/25 06:29:19;;;;;;;34.03;6.57;;;;;;;;;;5071759;28;20454;-79
2022/04/25 06:31:46;;;;;;;31.00;4.10;;;;;;;;;;5071961;28;20496;-78
2022/04/25 06:34:14;;;;;;;19.67;4.03;;;;;;;;;;5072053;28;20490;-80
2022/04/25 06:36:41;;;;;;;28.03;4.47;;;;;;;;;;5071259;28;20476;-79
2022/04/25 06:39:09;;;;;;;30.03;5.47;;;;;;;;;;5071877;28;20539;-80
2022/04/25 06:41:36;;;;;;;25.87;4.87;;;;;;;;;;5071232;28;21030;-84
2022/04/25 06:44:06;;;;;;;34.97;8.47;;;;;;;;;;5071986;28;20458;-80
2022/04/25 06:46:36;;;;;;;18.80;4.47;;;;;;;;;;5058978;28;20991;-78
2022/04/25 06:49:23;;;;;;;27.50;4.33;;;;;;;;;;5052589;28;20454;-80
2022/04/25 06:51:50;;;;;;;22.63;4.10;;;;;;;;;;5066107;28;21056;-81
2022/04/25 06:54:18;;;;;;;19.77;3.30;;;;;;;;;;5071890;28;20445;-80
2022/04/25 06:56:45;;;;;;;26.30;4.70;;;;;;;;;;5070364;28;20471;-87
2022/04/25 06:59:13;;;;;;;29.80;4.37;;;;;;;;;;5071552;28;20973;-82
2022/04/25 07:01:43;;;;;;;22.97;5.20;;;;;;;;;;5071182;28;21022;-80
2022/04/25 07:04:11;;;;;;;29.93;4.40;;;;;;;;;;5071388;28;20510;-81
2022/04/25 07:06:39;;;;;;;19.00;3.67;;;;;;;;;;5070454;28;20446;-81
2022/04/25 07:09:06;;;;;;;19.97;3.97;;;;;;;;;;5071236;28;20999;-80
2022/04/25 07:11:34;;;;;;;26.90;4.57;;;;;;;;;;5070553;28;20959;-82
2022/04/25 07:14:02;;;;;;;20.93;4.33;;;;;;;;;;5064269;28;20450;-82
2022/04/25 07:16:30;;;;;;;25.33;6.43;;;;;;;;;;5054858;28;20836;-80
2022/04/25 07:18:59;;;;;;;37.50;5.77;;;;;;;;;;5064946;28;20443;-81
2022/04/25 07:29:46;;;;;;;21.33;3.83;;;;;;;;;;5071208;28;20442;-79
2022/04/25 07:32:14;;;;;;;23.23;3.90;;;;;;;;;;5071383;28;20492;-76
2022/04/25 07:34:43;;;;;;;20.43;3.43;;;;;;;;;;5071211;28;20454;-77
2022/04/25 07:37:11;;;;;;;25.70;4.30;;;;;;;;;;5070662;28;20833;-76
2022/04/25 07:39:38;;;;;;;24.80;4.00;;;;;;;;;;5070898;28;20451;-78
2022/04/25 07:42:06;;;;;;;30.23;4.43;;;;;;;;;;5069086;28;20872;-78
2022/04/25 07:44:33;;;;;;;25.37;3.70;;;;;;;;;;5071356;28;20441;-76
2022/04/25 07:47:01;;;;;;;39.70;6.47;;;;;;;;;;5053592;28;20827;-77
2022/04/25 07:49:29;;;;;;;28.73;3.67;;;;;;;;;;5051763;28;20447;-77
2022/04/25 07:51:59;;;;;;;24.30;3.90;;;;;;;;;;5052085;28;20455;-77
2022/04/25 07:54:27;;;;;;;24.47;3.90;;;;;;;;;;5051873;28;20527;-76
2022/04/25 07:56:55;;;;;;;22.07;3.90;;;;;;;;;;5050718;28;20475;-80
2022/04/25 07:59:22;;;;;;;28.67;4.40;;;;;;;;;;5051719;28;20482;-78
2022/04/25 08:01:50;;;;;;;24.63;4.10;;;;;;;;;;5051437;28;20517;-80
2022/04/25 08:04:17;;;;;;;30.13;4.40;;;;;;;;;;5059545;28;20458;-80
2022/04/25 08:06:45;;;;;;;28.27;4.20;;;;;;;;;;5070503;28;20462;-81
2022/04/25 08:09:16;;;;;;;19.83;3.93;;;;;;;;;;5070923;28;20603;-77
2022/04/25 08:11:44;;;;;;;20.50;3.33;;;;;;;;;;5070946;28;20507;-79
2022/04/25 08:19:41;;;;;;;23.97;3.23;;;;;;;;;;5054665;28;20513;-85
2022/04/25 08:22:10;;;;;;;24.60;4.07;;;;;;;;;;5056042;28;20483;-82
2022/04/25 08:24:39;;;;;;;26.33;4.93;;;;;;;;;;5055069;28;20455;-82
2022/04/25 08:27:07;;;;;;;27.80;3.70;;;;;;;;;;5055511;28;20463;-80
2022/04/25 08:29:35;;;;;;;22.00;3.33;;;;;;;;;;5074521;28;20450;-81
2022/04/25 08:32:02;;;;;;;26.13;4.20;;;;;;;;;;5074180;28;20464;-80
2022/04/25 08:34:30;;;;;;;22.50;3.77;;;;;;;;;;5073988;28;20450;-76
2022/04/25 08:36:57;;;;;;;21.90;4.07;;;;;;;;;;5073156;28;20575;-75
2022/04/25 08:39:25;;;;;;;26.43;5.17;;;;;;;;;;5073803;28;20820;-75
2022/04/25 08:42:00;;;;;;;18.93;3.23;;;;;;;;;;5074237;28;20513;-75
2022/04/25 08:44:27;;;;;;;27.83;3.83;;;;;;;;;;5072438;28;20453;-75
2022/04/25 08:46:56;;;;;;;25.60;4.43;;;;;;;;;;5062193;28;20445;-76
2022/04/25 08:49:23;;;;;;;19.67;4.30;;;;;;;;;;5065417;28;20452;-76
2022/04/25 08:51:58;;;;;;;21.73;3.93;;;;;;;;;;5067349;28;20460;-79
2022/04/25 08:54:26;;;;;;;26.70;4.13;;;;;;;;;;5064968;28;20827;-82
2022/04/25 08:56:56;;;;;;;28.10;4.53;;;;;;;;;;5061120;28;20487;-77
2022/04/25 08:59:25;;;;;;;21.80;3.73;;;;;;;;;;5057134;28;20457;-78
2022/04/25 09:01:53;;;;;;;20.47;4.13;;;;;;;;;;5059018;28;20515;-75
2022/04/25 09:04:21;;;;;;;22.67;3.17;;;;;;;;;;5054774;28;20848;-76
2022/04/25 09:06:51;;;;;;;20.47;3.90;;;;;;;;;;5055284;28;20448;-75
2022/04/25 09:09:18;;;;;;;21.40;3.30;;;;;;;;;;5064703;28;20449;-76
2022/04/25 09:14:33;;;;;;;26.83;3.30;;;;;;;;;;5061973;28;20438;-76
2022/04/25 09:17:03;;;;;;;21.43;4.43;;;;;;;;;;5063364;28;20451;-75
2022/04/25 09:19:31;;;;;;;21.80;3.50;;;;;;;;;;5063067;28;20450;-77
2022/04/25 09:21:59;;;;;;;25.43;4.10;;;;;;;;;;5054124;28;20486;-76
2022/04/25 09:24:27;;;;;;;17.77;3.77;;;;;;;;;;5053889;28;20501;-75
2022/04/25 09:26:55;;;;;;;23.47;3.40;;;;;;;;;;5054518;28;20454;-75
2022/04/25 09:29:27;;;;;;;27.83;3.60;;;;;;;;;;5062858;28;21047;-76
2022/04/25 09:31:56;;;;;;;27.37;4.80;;;;;;;;;;5079922;28;21001;-75
2022/04/25 09:37:08;;;;;;;29.10;3.93;;;;;;;;;;5069754;28;20469;-76
2022/04/25 09:39:36;;;;;;;25.83;4.60;;;;;;;;;;5069865;28;20454;-75
2022/04/25 09:42:03;;;;;;;30.30;4.23;;;;;;;;;;5053798;28;20492;-75
2022/04/25 09:44:52;;;;;;;22.80;3.80;;;;;;;;;;5053887;28;20447;-76
2022/04/25 09:47:27;;;;;;;18.07;3.90;;;;;;;;;;5066881;28;20455;-79
2022/04/25 09:50:01;;;;;;;18.53;3.73;;;;;;;;;;5054249;28;20891;-79
2022/04/25 09:52:29;;;;;;;22.83;3.67;;;;;;;;;;5054110;28;20455;-84
2022/04/25 09:54:58;;;;;;;38.03;3.60;;;;;;;;;;5053527;28;20460;-79
2022/04/25 09:57:31;;;;;;;23.40;3.80;;;;;;;;;;5053034;28;20514;-82
2022/04/25 09:59:59;;;;;;;22.90;4.00;;;;;;;;;;5056384;28;20538;-83
2022/04/25 10:02:29;;;;;;;30.63;4.93;;;;;;;;;;5072524;28;20553;-79
2022/04/25 10:04:57;;;;;;;22.50;4.30;;;;;;;;;;5059952;28;20531;-87
2022/04/25 10:07:26;;;;;;;27.43;4.50;;;;;;;;;;5070218;28;20209;-83
2022/04/25 10:09:54;;;;;;;23.07;3.23;;;;;;;;;;5064002;28;20948;-78
2022/04/25 10:12:22;;;;;;;18.90;3.70;;;;;;;;;;5057828;28;20468;-84
2022/04/25 10:14:49;;;;;;;23.23;3.83;;;;;;;;;;5060637;28;20986;-82
2022/04/25 10:17:17;;;;;;;17.03;3.47;;;;;;;;;;5055683;28;20456;-82
2022/04/25 10:19:47;;;;;;;22.03;4.00;;;;;;;;;;5063865;28;21008;-81
2022/04/25 10:22:17;;;;;;;24.80;3.23;;;;;;;;;;5056374;28;20910;-81
2022/04/25 10:24:45;;;;;;;21.70;3.17;;;;;;;;;;5056828;28;20466;-81
2022/04/25 10:27:14;;;;;;;20.10;2.73;;;;;;;;;;5058491;28;20455;-83
2022/04/25 10:29:45;;;;;;;16.90;3.37;;;;;;;;;;5053567;28;20505;-85
2022/04/25 10:32:17;;;;;;;25.57;7.13;;;;;;;;;;5053371;28;20994;-83
2022/04/25 10:34:51;;;;;;;28.33;6.80;;;;;;;;;;5052182;28;20456;-82
2022/04/25 10:37:29;;;;;;;26.27;4.60;;;;;;;;;;5052337;28;20548;-79
2022/04/25 10:39:57;;;;;;;43.43;11.43;;;;;;;;;;5071797;28;20455;-82
2022/04/25 10:45:09;;;;;;;22.10;3.93;;;;;;;;;;5072073;28;20434;-77
2022/04/25 10:47:37;;;;;;;31.40;5.80;;;;;;;;;;5052445;28;20449;-79
2022/04/25 10:50:07;;;;;;;31.77;5.60;;;;;;;;;;5052812;28;20513;-77
2022/04/25 10:53:02;;;;;;;26.60;4.67;;;;;;;;;;5053044;28;20462;-81
2022/04/25 10:55:38;;;;;;;25.90;6.93;;;;;;;;;;5065457;28;20450;-80
2022/04/25 10:58:16;;;;;;;26.53;3.20;;;;;;;;;;5052741;28;20462;-81
2022/04/25 11:00:45;;;;;;;23.80;3.80;;;;;;;;;;5052585;28;20471;-79
2022/04/25 11:03:14;;;;;;;37.40;9.80;;;;;;;;;;5067055;28;20524;-79
2022/04/25 11:05:44;;;;;;;17.43;2.60;;;;;;;;;;5071986;28;20443;-80
2022/04/25 11:08:25;;;;;;;21.30;3.17;;;;;;;;;;5071415;28;20446;-80
2022/04/25 11:11:00;;;;;;;19.33;2.73;;;;;;;;;;5052313;28;20443;-82
2022/04/25 11:13:28;;;;;;;17.53;2.50;;;;;;;;;;5052284;28;20517;-80
2022/04/25 11:15:56;;;;;;;24.00;3.83;;;;;;;;;;5052665;28;20470;-78
2022/04/25 11:18:27;;;;;;;19.83;3.83;;;;;;;;;;5065562;28;20451;-77
2022/04/25 11:21:04;;;;;;;27.93;5.30;;;;;;;;;;5052218;28;20450;-77
2022/04/25 11:23:33;;;;;;;24.57;3.57;;;;;;;;;;5070958;28;20573;-79
2022/04/25 11:26:01;;;;;;;22.50;3.20;;;;;;;;;;5058842;28;20816;-80
2022/04/25 11:28:28;;;;;;;20.23;3.23;;;;;;;;;;5052177;28;20942;-79
2022/04/25 11:31:14;;;;;;;22.10;4.20;;;;;;;;;;5052311;28;20475;-76
2022/04/25 11:33:42;;;;;;;22.80;2.80;;;;;;;;;;5064923;28;20454;-78
2022/04/25 11:36:11;;;;;;;23.47;3.20;;;;;;;;;;5071245;28;20474;-78
2022/04/25 11:41:25;;;;;;;18.00;3.30;;;;;;;;;;5071020;28;20437;-81
2022/04/25 11:43:52;;;;;;;16.47;2.50;;;;;;;;;;5052006;28;20990;-78
2022/04/25 11:46:20;;;;;;;21.97;3.40;;;;;;;;;;5052089;28;20454;-82
2022/04/25 11:48:49;;;;;;;17.00;3.30;;;;;;;;;;5051853;28;20453;-77
2022/04/25 11:51:24;;;;;;;18.93;3.93;;;;;;;;;;5051702;28;20456;-76
2022/04/25 11:53:54;;;;;;;20.70;2.73;;;;;;;;;;5072483;28;20463;-76
2022/04/25 11:56:22;;;;;;;19.60;3.67;;;;;;;;;;5064440;28;21200;-81
2022/04/25 11:58:51;;;;;;;21.57;3.37;;;;;;;;;;5070104;28;20539;-75
2022/04/25 12:01:35;;;;;;;21.43;3.77;;;;;;;;;;5055715;28;20525;-76
2022/04/25 12:04:15;;;;;;;17.63;3.03;;;;;;;;;;5055778;28;20442;-76
2022/04/25 12:06:49;;;;;;;23.70;3.70;;;;;;;;;;5055649;28;20452;-75
2022/04/25 12:17:39;;;;;;;15.07;2.60;;;;;;;;;;5074506;28;20486;-76
2022/04/25 12:20:09;;;;;;;15.63;2.90;;;;;;;;;;5071694;28;20514;-78
2022/04/25 12:22:38;;;;;;;20.60;3.00;;;;;;;;;;5054986;28;20492;-78
2022/04/25 12:25:16;;;;;;;22.83;3.27;;;;;;;;;;5057315;28;20445;-79
2022/04/25 12:28:02;;;;;;;20.20;3.10;;;;;;;;;;5058231;28;20460;-75
2022/04/25 12:30:32;;;;;;;20.37;4.33;;;;;;;;;;5055338;28;20447;-75
2022/04/25 12:33:09;;;;;;;16.17;3.30;;;;;;;;;;5055473;28;20834;-75
2022/04/25 12:35:37;;;;;;;21.53;5.60;;;;;;;;;;5059790;28;20505;-76
2022/04/25 12:38:07;;;;;;;21.07;3.70;;;;;;;;;;5073508;28;20455;-78
2022/04/25 12:40:36;;;;;;;22.43;3.50;;;;;;;;;;5074161;28;20554;-75
2022/04/25 12:43:03;;;;;;;21.20;2.83;;;;;;;;;;5073328;28;20502;-74
2022/04/25 12:45:49;;;;;;;22.10;2.80;;;;;;;;;;5072017;28;20454;-74
2022/04/25 12:48:17;;;;;;;17.60;3.00;;;;;;;;;;5062224;28;20533;-77
2022/04/25 12:50:46;;;;;;;20.80;3.33;;;;;;;;;;5066378;28;20451;-82
2022/04/25 12:53:15;;;;;;;21.13;2.70;;;;;;;;;;5061752;28;20459;-82
2022/04/25 12:55:44;;;;;;;17.43;2.53;;;;;;;;;;5060499;28;20478;-83
2022/04/25 12:58:12;;;;;;;23.13;3.23;;;;;;;;;;5062635;28;20504;-83
2022/04/25 13:00:43;;;;;;;21.43;3.27;;;;;;;;;;5061571;28;20468;-82
2022/04/25 13:03:11;;;;;;;25.33;3.47;;;;;;;;;;5056811;28;21033;-76
2022/04/25 13:05:38;;;;;;;15.83;2.30;;;;;;;;;;5060219;28;20449;-84
2022/04/25 13:08:06;;;;;;;16.33;2.80;;;;;;;;;;5054711;28;20454;-85
2022/04/25 13:10:35;;;;;;;15.43;2.90;;;;;;;;;;5055291;28;20474;-87
2022/04/25 13:13:03;;;;;;;21.20;3.40;;;;;;;;;;5055051;28;20447;-83
2022/04/25 13:15:30;;;;;;;19.60;2.57;;;;;;;;;;5054683;28;20981;-81
2022/04/25 13:17:58;;;;;;;16.57;2.27;;;;;;;;;;5055140;28;20948;-78
2022/04/25 13:20:28;;;;;;;16.43;2.40;;;;;;;;;;5055055;28;20455;-83
2022/04/25 13:22:56;;;;;;;18.80;2.63;;;;;;;;;;5054098;28;20887;-78
2022/04/25 13:25:24;;;;;;;22.77;3.40;;;;;;;;;;5055412;28;20454;-74
2022/04/25 13:27:53;;;;;;;21.53;2.70;;;;;;;;;;5066895;28;20458;-75
2022/04/25 13:30:21;;;;;;;16.43;2.50;;;;;;;;;;5066936;28;20971;-81
2022/04/25 13:32:50;;;;;;;21.53;2.97;;;;;;;;;;5073447;28;20448;-79
2022/04/25 13:35:18;;;;;;;20.50;3.23;;;;;;;;;;5072813;28;20466;-80
2022/04/25 13:37:46;;;;;;;20.07;3.07;;;;;;;;;;5056878;28;20471;-77
2022/04/25 13:40:14;;;;;;;15.07;2.33;;;;;;;;;;5071430;28;20445;-74
2022/04/25 13:42:43;;;;;;;24.30;3.10;;;;;;;;;;5072830;28;21004;-79
2022/04/25 13:45:13;;;;;;;16.60;2.23;;;;;;;;;;5072755;28;20444;-74
2022/04/25 13:47:41;;;;;;;17.00;2.50;;;;;;;;;;5070842;28;20469;-79
2022/04/25 13:50:09;;;;;;;23.83;2.80;;;;;;;;;;5060266;28;20452;-77
2022/04/25 13:52:37;;;;;;;35.83;3.30;;;;;;;;;;5059849;28;20522;-79
2022/04/25 13:55:04;;;;;;;19.37;3.97;;;;;;;;;;5061537;28;20449;-81
2022/04/25 13:57:32;;;;;;;20.50;3.00;;;;;;;;;;5060280;28;21017;-80
2022/04/25 13:59:59;;;;;;;17.83;3.03;;;;;;;;;;5056940;28;20453;-80
2022/04/25 14:05:14;;;;;;;14.97;2.73;;;;;;;;;;5053369;28;20435;-77
2022/04/25 14:07:42;;;;;;;26.23;3.13;;;;;;;;;;5052662;28;20456;-77
2022/04/25 14:10:09;;;;;;;23.53;2.80;;;;;;;;;;5053461;28;20821;-78
2022/04/25 14:12:37;;;;;;;19.67;3.50;;;;;;;;;;5053250;28;20458;-78
2022/04/25 14:15:05;;;;;;;20.03;2.97;;;;;;;;;;5053416;28;20453;-76
2022/04/25 14:17:34;;;;;;;19.27;3.17;;;;;;;;;;5051902;28;20874;-77
2022/04/25 14:20:02;;;;;;;24.40;4.03;;;;;;;;;;5053227;28;20444;-76
2022/04/25 14:22:30;;;;;;;16.63;3.07;;;;;;;;;;5052857;28;20913;-77
2022/04/25 14:24:57;;;;;;;21.10;2.80;;;;;;;;;;5053335;28;20459;-77
2022/04/25 14:27:25;;;;;;;19.53;2.90;;;;;;;;;;5052769;28;20448;-75
2022/04/25 14:29:52;;;;;;;35.07;6.07;;;;;;;;;;5066082;28;20819;-76
2022/04/25 14:32:19;;;;;;;23.27;4.60;;;;;;;;;;5071953;28;20446;-76
2022/04/25 14:34:48;;;;;;;13.90;3.10;;;;;;;;;;5053811;28;20539;-76
2022/04/25 14:37:16;;;;;;;23.60;3.60;;;;;;;;;;5051847;28;20475;-75
2022/04/25 14:39:44;;;;;;;14.87;3.07;;;;;;;;;;5052787;28;20944;-76
2022/04/25 14:42:11;;;;;;;21.40;3.87;;;;;;;;;;5052746;28;20436;-76
2022/04/25 14:44:40;;;;;;;24.37;3.00;;;;;;;;;;5052618;28;20460;-75
2022/04/25 14:47:08;;;;;;;28.10;4.13;;;;;;;;;;5052473;28;20480;-73
2022/04/25 14:55:08;;;;;;;22.13;2.60;;;;;;;;;;5052727;28;20441;-75
2022/04/25 14:57:35;;;;;;;22.20;3.80;;;;;;;;;;5052173;28;20460;-71
2022/04/25 15:00:03;;;;;;;30.47;4.13;;;;;;;;;;5052518;28;20447;-75
2022/04/25 15:02:30;;;;;;;16.97;2.80;;;;;;;;;;5054606;28;20447;-70
2022/04/25 15:04:58;;;;;;;25.43;3.23;;;;;;;;;;5053190;28;20578;-70
2022/04/25 15:07:27;;;;;;;27.80;3.80;;;;;;;;;;5070565;28;20458;-71
2022/04/25 15:09:54;;;;;;;23.03;4.13;;;;;;;;;;5071633;28;20446;-70
2022/04/25 15:12:22;;;;;;;31.70;3.70;;;;;;;;;;5071087;28;20451;-70
2022/04/25 15:14:49;;;;;;;23.23;2.63;;;;;;;;;;5071370;28;20442;-70
2022/04/25 15:17:16;;;;;;;20.90;3.37;;;;;;;;;;5071340;28;20834;-70
2022/04/25 15:19:44;;;;;;;19.60;3.47;;;;;;;;;;5071279;28;20462;-70
2022/04/25 15:22:11;;;;;;;21.00;2.67;;;;;;;;;;5070663;28;20465;-70
2022/04/25 15:24:41;;;;;;;21.23;3.03;;;;;;;;;;5071140;28;20481;-72
2022/04/25 15:27:08;;;;;;;26.33;3.20;;;;;;;;;;5071050;28;20447;-70
2022/04/25 15:29:37;;;;;;;24.40;2.83;;;;;;;;;;5071147;28;20454;-71
2022/04/25 15:32:05;;;;;;;16.30;2.63;;;;;;;;;;5071076;28;20863;-70
2022/04/25 15:34:33;;;;;;;29.63;3.20;;;;;;;;;;5051742;28;20875;-70